Time;durP1;ratioP1;P1;durP2;ratioP2;P2;SDS_P1;SDS_P2;PMS_P1;PMS_P2;Temp;Humidity;BMP_temperature;BMP_pressure;BME280_temperature;BME280_humidity;BME280_pressure;Samples;Min_cycle;Max_cycle;Signal;HPM_P1;HPM_P2
2020/12/19 00:01:54;;;;;;;58.35;31.25;;;179.60;1996.80;;;;;;5076294;28;20032;-62
2020/12/19 00:04:20;;;;;;;55.67;30.08;;;179.60;1996.80;;;;;;5075890;28;20475;-62
2020/12/19 00:06:45;;;;;;;56.83;30.65;;;179.70;1996.80;;;;;;5075614;28;20437;-62
2020/12/19 00:09:12;;;;;;;57.42;30.35;;;179.60;1996.80;;;;;;5075998;28;20071;-62
2020/12/19 00:11:41;;;;;;;55.13;31.42;;;179.60;1996.80;;;;;;5076051;28;20078;-60
2020/12/19 00:14:06;;;;;;;;;;;179.70;1996.80;;;;;;5076406;28;20028;-62
2020/12/19 00:16:32;;;;;;;53.65;29.15;;;179.80;1971.20;;;;;;5075839;28;20266;-63
2020/12/19 00:18:58;;;;;;;57.42;30.15;;;179.90;1945.60;;;;;;5075807;28;20017;-60
2020/12/19 00:21:23;;;;;;;59.22;31.70;;;179.80;1971.20;;;;;;5075634;28;20034;-63
2020/12/19 00:23:49;;;;;;;57.85;28.58;;;179.70;1971.20;;;;;;5075223;28;20043;-62
2020/12/19 00:26:15;;;;;;;53.22;29.00;;;179.50;1996.80;;;;;;5075535;28;20024;-62
2020/12/19 00:28:41;;;;;;;52.47;29.80;;;179.50;1996.80;;;;;;5075788;28;20074;-68
2020/12/19 00:31:07;;;;;;;54.40;28.67;;;179.70;1996.80;;;;;;5075446;28;20024;-56
2020/12/19 00:33:33;;;;;;;55.63;29.05;;;179.90;1971.20;;;;;;5075619;28;20033;-57
2020/12/19 00:35:58;;;;;;;53.85;28.92;;;179.90;1945.60;;;;;;5057229;28;20099;-59
2020/12/19 00:38:24;;;;;;;52.45;28.13;;;179.70;1971.20;;;;;;5075318;28;20021;-59
2020/12/19 00:40:50;;;;;;;55.38;30.63;;;179.80;1945.60;;;;;;5075336;28;20424;-57
2020/12/19 00:43:15;;;;;;;53.78;30.13;;;179.90;1920.00;;;;;;5075330;28;20028;-58
2020/12/19 00:45:41;;;;;;;56.67;29.63;;;179.90;1920.00;;;;;;5075170;28;20031;-58
2020/12/19 00:48:07;;;;;;;51.15;27.15;;;179.70;1945.60;;;;;;5074954;28;20043;-57
2020/12/19 00:50:32;;;;;;;49.83;26.83;;;179.80;1971.20;;;;;;5075417;28;20025;-58
2020/12/19 00:52:58;;;;;;;49.75;28.10;;;179.80;1945.60;;;;;;5074962;28;20100;-57
2020/12/19 00:55:23;;;;;;;52.10;30.15;;;179.80;1945.60;;;;;;5074635;28;20033;-56
2020/12/19 00:57:49;;;;;;;53.47;28.65;;;179.80;1945.60;;;;;;5074813;28;20030;-58
2020/12/19 01:00:15;;;;;;;50.13;28.45;;;179.80;1945.60;;;;;;5061290;28;20474;-57
2020/12/19 01:02:40;;;;;;;52.85;29.52;;;179.80;1945.60;;;;;;5075150;28;20553;-57
2020/12/19 01:05:08;;;;;;;49.33;28.52;;;179.80;1971.20;;;;;;5074753;28;20382;-58
2020/12/19 01:07:39;;;;;;;54.33;29.40;;;179.70;1971.20;;;;;;5074683;28;20041;-59
2020/12/19 01:10:10;;;;;;;54.38;30.30;;;179.60;1971.20;;;;;;5074616;28;20090;-59
2020/12/19 01:12:37;;;;;;;54.47;28.13;;;179.60;1971.20;;;;;;5074830;28;20028;-59
2020/12/19 01:15:05;;;;;;;51.88;28.42;;;179.60;1996.80;;;;;;5074698;28;20032;-59
2020/12/19 01:17:31;;;;;;;56.97;29.02;;;179.60;1996.80;;;;;;5074583;28;20107;-58
2020/12/19 01:19:58;;;;;;;50.63;29.13;;;179.70;1971.20;;;;;;5074881;28;20521;-59
2020/12/19 01:22:24;;;;;;;52.22;28.75;;;179.70;1971.20;;;;;;5074897;28;20020;-58
2020/12/19 01:24:50;;;;;;;51.83;28.85;;;179.70;1971.20;;;;;;5074736;28;20119;-59
2020/12/19 01:27:15;;;;;;;56.33;30.85;;;179.60;1996.80;;;;;;5074462;28;20024;-60
2020/12/19 01:29:41;;;;;;;53.70;29.95;;;179.60;1996.80;;;;;;5074839;28;20489;-60
2020/12/19 01:32:06;;;;;;;55.17;30.15;;;179.70;1971.20;;;;;;5074326;28;20410;-61
2020/12/19 01:34:32;;;;;;;52.80;29.02;;;179.60;1996.80;;;;;;5074620;28;20067;-61
2020/12/19 01:36:58;;;;;;;53.00;28.50;;;179.70;1971.20;;;;;;5073014;28;20032;-61
2020/12/19 01:39:23;;;;;;;53.95;30.75;;;179.70;1971.20;;;;;;5074053;28;20016;-62
2020/12/19 01:41:52;;;;;;;52.92;29.83;;;179.80;1971.20;;;;;;5074180;28;20021;-59
2020/12/19 01:44:18;;;;;;;52.38;30.77;;;179.80;1971.20;;;;;;5074305;28;20052;-59
2020/12/19 01:46:59;;;;;;;52.60;29.95;;;179.80;1945.60;;;;;;5074010;28;20822;-58
2020/12/19 01:49:29;;;;;;;49.72;28.70;;;179.80;1945.60;;;;;;5061845;28;20025;-59
2020/12/19 01:52:00;;;;;;;53.00;30.75;;;179.80;1971.20;;;;;;5074178;28;20029;-59
2020/12/19 01:54:26;;;;;;;53.92;29.88;;;179.60;1971.20;;;;;;5060325;28;20025;-59
2020/12/19 01:56:57;;;;;;;51.47;29.48;;;179.60;1996.80;;;;;;5073587;28;20044;-59
2020/12/19 01:59:24;;;;;;;51.53;27.40;;;179.70;1971.20;;;;;;5074018;28;20061;-58
2020/12/19 02:02:02;;;;;;;54.25;32.08;;;179.60;1996.80;;;;;;5074027;28;20482;-60
2020/12/19 02:04:28;;;;;;;48.60;27.85;;;179.60;1996.80;;;;;;5073850;28;20025;-59
2020/12/19 02:06:55;;;;;;;46.85;28.38;;;179.60;1971.20;;;;;;5073386;28;20101;-61
2020/12/19 02:09:24;;;;;;;54.47;28.70;;;179.70;1971.20;;;;;;5072818;28;20544;-59
2020/12/19 02:11:50;;;;;;;45.92;26.98;;;179.70;1971.20;;;;;;5073499;28;20016;-59
2020/12/19 02:14:16;;;;;;;47.80;27.40;;;179.60;1971.20;;;;;;5073773;28;20368;-60
2020/12/19 02:16:53;;;;;;;47.55;27.55;;;179.70;1971.20;;;;;;5073893;28;20375;-60
2020/12/19 02:19:19;;;;;;;44.35;26.17;;;179.60;1971.20;;;;;;5072484;28;20095;-59
2020/12/19 02:21:45;;;;;;;46.00;27.00;;;179.50;1971.20;;;;;;5073502;28;20100;-60
2020/12/19 02:24:11;;;;;;;44.08;27.00;;;179.30;1971.20;;;;;;5073326;28;20032;-59
2020/12/19 02:26:36;;;;;;;48.10;28.40;;;179.40;1971.20;;;;;;5073067;28;20425;-61
2020/12/19 02:29:02;;;;;;;45.17;25.40;;;179.30;1996.80;;;;;;5073829;28;20023;-58
2020/12/19 02:31:28;;;;;;;43.38;25.92;;;179.50;1971.20;;;;;;5073333;28;20024;-59
2020/12/19 02:33:54;;;;;;;43.05;26.10;;;179.50;1971.20;;;;;;5073755;28;20036;-58
2020/12/19 02:36:19;;;;;;;43.80;25.50;;;179.40;1971.20;;;;;;5072733;28;20074;-58
2020/12/19 02:38:45;;;;;;;42.40;25.38;;;179.40;1971.20;;;;;;5073013;28;20063;-57
2020/12/19 02:41:11;;;;;;;44.20;26.52;;;179.40;1996.80;;;;;;5073008;28;20107;-57
2020/12/19 02:43:36;;;;;;;46.20;26.50;;;179.60;1971.20;;;;;;5073034;28;20025;-57
2020/12/19 02:46:02;;;;;;;44.53;25.70;;;179.60;1945.60;;;;;;5072774;28;20082;-58
2020/12/19 02:48:28;;;;;;;45.58;26.40;;;179.60;1945.60;;;;;;5073209;28;20070;-58
2020/12/19 02:50:54;;;;;;;41.72;24.55;;;179.70;1945.60;;;;;;5072827;28;20461;-58
2020/12/19 02:53:19;;;;;;;41.33;23.88;;;179.70;1920.00;;;;;;5072902;28;20059;-60
2020/12/19 02:55:45;;;;;;;40.55;24.00;;;179.60;1945.60;;;;;;5072453;28;20040;-58
2020/12/19 02:58:11;;;;;;;38.80;23.33;;;179.70;1920.00;;;;;;5073035;28;20050;-57
2020/12/19 03:00:36;;;;;;;42.40;25.55;;;179.70;1920.00;;;;;;5072790;28;20060;-57
2020/12/19 03:03:02;;;;;;;41.45;24.33;;;179.70;1920.00;;;;;;5072573;28;20047;-57
2020/12/19 03:05:28;;;;;;;42.75;23.35;;;179.70;1920.00;;;;;;5072886;28;20052;-58
2020/12/19 03:07:53;;;;;;;39.05;22.88;;;179.70;1920.00;;;;;;5072395;28;20387;-58
2020/12/19 03:10:19;;;;;;;35.35;21.35;;;179.60;1920.00;;;;;;5073109;28;20066;-57
2020/12/19 03:12:45;;;;;;;37.03;23.45;;;179.60;1945.60;;;;;;5073901;28;20099;-58
2020/12/19 03:15:13;;;;;;;34.40;21.42;;;179.60;1945.60;;;;;;5072608;28;20036;-57
2020/12/19 03:17:38;;;;;;;31.52;20.77;;;179.40;1945.60;;;;;;5072448;28;20409;-57
2020/12/19 03:20:04;;;;;;;33.15;20.38;;;179.50;1945.60;;;;;;5072735;28;20035;-58
2020/12/19 03:22:30;;;;;;;33.75;20.73;;;179.40;1945.60;;;;;;5072600;28;20466;-57
2020/12/19 03:24:56;;;;;;;36.30;21.15;;;179.50;1945.60;;;;;;5072106;28;20024;-57
2020/12/19 03:27:21;;;;;;;32.80;20.65;;;179.60;1920.00;;;;;;5072328;28;20056;-57
2020/12/19 03:29:50;;;;;;;33.00;21.50;;;179.50;1945.60;;;;;;5072639;28;20028;-57
2020/12/19 03:32:15;;;;;;;29.80;17.60;;;179.30;1971.20;;;;;;5072167;28;20462;-61
2020/12/19 03:34:41;;;;;;;29.27;18.35;;;179.50;1920.00;;;;;;5070708;28;20067;-58
2020/12/19 03:37:07;;;;;;;28.40;18.17;;;179.60;1920.00;;;;;;5070986;28;20056;-57
2020/12/19 03:39:32;;;;;;;29.52;19.15;;;179.40;1920.00;;;;;;5072384;28;20095;-57
2020/12/19 03:41:58;;;;;;;31.55;19.48;;;179.40;1945.60;;;;;;5072161;28;20025;-57
2020/12/19 03:44:23;;;;;;;29.83;18.80;;;179.50;1920.00;;;;;;5072370;28;20024;-57
2020/12/19 03:46:49;;;;;;;30.45;18.13;;;179.50;1920.00;;;;;;5072028;28;20382;-59
2020/12/19 03:49:15;;;;;;;27.90;17.63;;;179.40;1945.60;;;;;;5072710;28;20425;-57
2020/12/19 03:51:40;;;;;;;28.40;18.27;;;179.40;1920.00;;;;;;5072345;28;20024;-57
2020/12/19 03:54:06;;;;;;;29.25;18.77;;;179.30;1920.00;;;;;;5071927;28;20126;-57
2020/12/19 03:56:32;;;;;;;34.08;20.98;;;179.40;1920.00;;;;;;5071949;28;20047;-57
2020/12/19 03:58:57;;;;;;;29.25;19.40;;;179.50;1920.00;;;;;;5072115;28;20074;-57
2020/12/19 04:01:25;;;;;;;29.30;19.08;;;179.50;1920.00;;;;;;5072229;28;20040;-57
2020/12/19 04:03:51;;;;;;;32.27;20.27;;;179.60;1894.40;;;;;;5071666;28;20036;-57
2020/12/19 04:06:17;;;;;;;30.17;19.15;;;179.60;1920.00;;;;;;5072122;28;20122;-57
2020/12/19 04:08:42;;;;;;;29.17;18.48;;;179.60;1920.00;;;;;;5072440;28;20056;-57
2020/12/19 04:11:08;;;;;;;32.33;18.98;;;179.60;1920.00;;;;;;5071716;28;20035;-57
2020/12/19 04:13:34;;;;;;;29.23;18.80;;;179.60;1894.40;;;;;;5072260;28;20035;-57
2020/12/19 04:15:59;;;;;;;30.50;18.52;;;179.60;1894.40;;;;;;5071730;28;20490;-56
2020/12/19 04:18:25;;;;;;;29.65;17.92;;;179.70;1894.40;;;;;;5058096;28;20154;-57
2020/12/19 04:20:52;;;;;;;26.70;17.48;;;179.70;1894.40;;;;;;5070949;28;20086;-56
2020/12/19 04:23:17;;;;;;;29.77;16.77;;;179.60;1894.40;;;;;;5071627;28;20016;-57
2020/12/19 04:25:43;;;;;;;30.67;18.98;;;179.50;1920.00;;;;;;5071751;28;20032;-57
2020/12/19 04:28:09;;;;;;;26.67;17.27;;;179.60;1920.00;;;;;;5072506;28;20025;-58
2020/12/19 04:30:34;;;;;;;31.60;17.80;;;179.40;1945.60;;;;;;5071728;28;20082;-56
2020/12/19 04:33:00;;;;;;;27.75;17.45;;;179.30;1920.00;;;;;;5072390;28;20033;-56
2020/12/19 04:35:25;;;;;;;28.25;18.30;;;179.40;1920.00;;;;;;5075668;28;20047;-56
2020/12/19 04:37:51;;;;;;;25.63;16.60;;;179.50;1920.00;;;;;;5075366;28;20108;-56
2020/12/19 04:40:17;;;;;;;27.73;17.23;;;179.60;1920.00;;;;;;5075588;28;20064;-57
2020/12/19 04:42:43;;;;;;;28.35;16.75;;;179.60;1920.00;;;;;;5075001;28;20150;-58
2020/12/19 04:45:09;;;;;;;26.58;17.05;;;179.70;1894.40;;;;;;5075575;28;20455;-56
2020/12/19 04:47:35;;;;;;;29.08;17.25;;;179.70;1894.40;;;;;;5075482;28;20020;-60
2020/12/19 04:50:01;;;;;;;65.90;44.95;;;179.70;1894.40;;;;;;5075021;28;20086;-57
2020/12/19 04:52:28;;;;;;;301.45;147.32;;;179.60;1894.40;;;;;;5075437;28;20036;-57
2020/12/19 04:54:54;;;;;;;317.95;196.02;;;179.60;1894.40;;;;;;5075060;28;20033;-57
2020/12/19 04:57:20;;;;;;;58.65;37.15;;;179.60;1894.40;;;;;;5074980;28;20466;-58
2020/12/19 04:59:47;;;;;;;45.58;29.83;;;179.60;1920.00;;;;;;5074950;28;20021;-60
2020/12/19 05:02:13;;;;;;;37.92;24.67;;;179.50;1920.00;;;;;;5075142;28;20028;-58
2020/12/19 05:04:39;;;;;;;47.65;33.58;;;179.30;1920.00;;;;;;5075265;28;20028;-58
2020/12/19 05:07:09;;;;;;;69.10;48.78;;;179.20;1945.60;;;;;;5075498;28;20045;-57
2020/12/19 05:09:42;;;;;;;39.47;24.15;;;179.20;1945.60;;;;;;5074919;28;20035;-57
2020/12/19 05:12:09;;;;;;;32.90;21.80;;;179.40;1945.60;;;;;;5074638;28;20480;-55
2020/12/19 05:14:35;;;;;;;54.03;34.58;;;179.30;1945.60;;;;;;5075060;28;20082;-57
2020/12/19 05:17:01;;;;;;;37.83;24.45;;;179.50;1920.00;;;;;;5074254;28;20086;-57
2020/12/19 05:19:27;;;;;;;37.53;22.52;;;179.50;1920.00;;;;;;5074901;28;20029;-57
2020/12/19 05:21:54;;;;;;;35.95;21.65;;;179.40;1920.00;;;;;;5074738;28;20033;-57
2020/12/19 05:24:29;;;;;;;34.40;22.35;;;179.50;1920.00;;;;;;5074833;28;20025;-56
2020/12/19 05:26:55;;;;;;;37.90;23.98;;;179.50;1920.00;;;;;;5074290;28;20027;-57
2020/12/19 05:29:21;;;;;;;50.28;32.65;;;179.50;1920.00;;;;;;5074514;28;20082;-56
2020/12/19 05:31:55;;;;;;;53.38;33.53;;;179.50;1920.00;;;;;;5074533;28;20032;-56
2020/12/19 05:34:22;;;;;;;153.00;137.90;;;179.30;1945.60;;;;;;5074324;28;20386;-55
2020/12/19 05:36:49;;;;;;;56.40;46.40;;;179.40;1945.60;;;;;;5072128;28;20060;-57
2020/12/19 05:39:15;;;;;;;33.47;25.67;;;179.50;1920.00;;;;;;5074768;28;20027;-57
2020/12/19 05:41:40;;;;;;;36.70;27.48;;;179.40;1920.00;;;;;;5074213;28;20036;-59
2020/12/19 05:44:07;;;;;;;33.10;20.33;;;179.50;1920.00;;;;;;5074437;28;20024;-60
2020/12/19 05:46:37;;;;;;;29.08;18.40;;;179.40;1920.00;;;;;;5073169;28;20029;-56
2020/12/19 05:49:05;;;;;;;28.13;17.02;;;179.30;1920.00;;;;;;5074483;28;20024;-57
2020/12/19 05:51:33;;;;;;;32.42;18.63;;;179.30;1920.00;;;;;;5074107;28;20028;-57
2020/12/19 05:54:10;;;;;;;31.27;16.25;;;179.50;1920.00;;;;;;5073971;28;20031;-59
2020/12/19 05:56:41;;;;;;;28.27;17.95;;;179.50;1920.00;;;;;;5073635;28;20040;-57
2020/12/19 05:59:11;;;;;;;32.22;18.92;;;179.40;1920.00;;;;;;5073987;28;20374;-56
2020/12/19 06:01:44;;;;;;;31.35;18.60;;;179.30;1920.00;;;;;;5073629;28;20572;-58
2020/12/19 06:04:11;;;;;;;28.02;16.95;;;179.40;1920.00;;;;;;5074010;28;20060;-58
2020/12/19 06:06:43;;;;;;;25.80;17.00;;;179.30;1945.60;;;;;;5073486;28;20457;-61
2020/12/19 06:09:10;;;;;;;28.25;17.33;;;179.30;1920.00;;;;;;5073946;28;20463;-58
2020/12/19 06:11:57;;;;;;;26.08;15.63;;;179.40;1920.00;;;;;;5073465;28;20428;-59
2020/12/19 06:14:25;;;;;;;29.27;16.80;;;179.60;1894.40;;;;;;5073969;28;20074;-57
2020/12/19 06:16:58;;;;;;;25.92;16.73;;;179.60;1868.80;;;;;;5071726;28;20040;-59
2020/12/19 06:19:24;;;;;;;29.38;17.85;;;179.60;1868.80;;;;;;5071824;28;20027;-61
2020/12/19 06:21:55;;;;;;;26.77;17.15;;;179.40;1894.40;;;;;;5073393;28;20016;-60
2020/12/19 06:24:41;;;;;;;27.48;17.35;;;179.50;1894.40;;;;;;5073223;28;20099;-57
2020/12/19 06:27:31;;;;;;;31.67;19.83;;;179.60;1894.40;;;;;;5073060;28;20016;-58
2020/12/19 06:29:56;;;;;;;31.48;19.02;;;179.50;1894.40;;;;;;5056285;28;20043;-60
2020/12/19 06:32:29;;;;;;;34.33;21.35;;;179.40;1920.00;;;;;;5073120;28;20379;-59
2020/12/19 06:35:01;;;;;;;31.30;20.48;;;179.50;1920.00;;;;;;5073297;28;20067;-60
2020/12/19 06:37:28;;;;;;;52.72;43.10;;;179.40;1920.00;;;;;;5072896;28;20048;-60
2020/12/19 06:40:18;;;;;;;35.63;25.17;;;179.40;1945.60;;;;;;5073459;28;20024;-59
2020/12/19 06:42:46;;;;;;;36.67;25.45;;;179.60;1920.00;;;;;;5072929;28;20020;-60
2020/12/19 06:45:30;;;;;;;36.80;22.27;;;179.50;1945.60;;;;;;5073440;28;20107;-62
2020/12/19 06:47:57;;;;;;;32.50;21.27;;;179.50;1920.00;;;;;;5073053;28;20024;-62
2020/12/19 06:50:24;;;;;;;39.58;25.08;;;179.60;1920.00;;;;;;5073456;28;20032;-60
2020/12/19 06:52:57;;;;;;;38.17;22.88;;;179.50;1920.00;;;;;;5072542;28;20031;-61
2020/12/19 06:55:29;;;;;;;41.63;22.45;;;179.60;1920.00;;;;;;5072818;28;20032;-59
2020/12/19 06:57:59;;;;;;;37.30;23.38;;;179.70;1920.00;;;;;;5072980;28;20367;-61
2020/12/19 07:00:29;;;;;;;41.08;24.60;;;179.70;1920.00;;;;;;5073177;28;20078;-61
2020/12/19 07:02:57;;;;;;;41.00;23.77;;;179.60;1920.00;;;;;;5072835;28;20028;-62
2020/12/19 07:05:31;;;;;;;42.42;24.15;;;179.60;1920.00;;;;;;5072835;28;20049;-60
2020/12/19 07:08:19;;;;;;;37.03;23.67;;;179.70;1920.00;;;;;;5072803;28;20131;-61
2020/12/19 07:10:46;;;;;;;36.08;22.45;;;179.70;1920.00;;;;;;5073079;28;20043;-61
2020/12/19 07:13:12;;;;;;;41.22;23.90;;;179.80;1894.40;;;;;;5072545;28;20027;-60
2020/12/19 07:15:52;;;;;;;39.45;23.95;;;180.00;1868.80;;;;;;5072919;28;20474;-59
2020/12/19 07:18:36;;;;;;;47.17;27.30;;;180.10;1868.80;;;;;;5072252;28;20017;-58
2020/12/19 07:21:03;;;;;;;44.25;28.00;;;180.00;1894.40;;;;;;5072557;28;20021;-57
2020/12/19 07:23:34;;;;;;;42.13;26.60;;;179.90;1920.00;;;;;;5072520;28;20013;-60
2020/12/19 07:26:00;;;;;;;48.10;25.73;;;180.00;1894.40;;;;;;5072417;28;20020;-57
2020/12/19 07:28:26;;;;;;;49.03;28.00;;;179.90;1920.00;;;;;;5072115;28;20033;-61
2020/12/19 07:30:52;;;;;;;51.72;29.33;;;180.00;1894.40;;;;;;5072771;28;20109;-57
2020/12/19 07:33:18;;;;;;;54.55;33.72;;;180.00;1894.40;;;;;;5072431;28;20059;-61
2020/12/19 07:35:44;;;;;;;50.80;30.83;;;180.00;1894.40;;;;;;5072375;28;20032;-60
2020/12/19 07:38:10;;;;;;;55.30;33.33;;;180.00;1894.40;;;;;;5072301;28;20028;-59
2020/12/19 07:40:36;;;;;;;51.72;30.67;;;180.00;1894.40;;;;;;5072340;28;20032;-60
2020/12/19 07:43:07;;;;;;;51.35;32.17;;;180.00;1894.40;;;;;;5072265;28;20066;-60
2020/12/19 07:45:34;;;;;;;58.78;32.17;;;179.80;1920.00;;;;;;5072422;28;20037;-57
2020/12/19 07:48:00;;;;;;;55.15;33.80;;;179.90;1920.00;;;;;;5054164;28;20363;-60
2020/12/19 07:50:27;;;;;;;58.20;31.17;;;179.90;1945.60;;;;;;5072522;28;20093;-60
2020/12/19 07:52:59;;;;;;;54.83;31.40;;;180.00;1945.60;;;;;;5072277;28;20078;-60
2020/12/19 07:55:25;;;;;;;61.78;32.28;;;180.00;1945.60;;;;;;5072236;28;20483;-59
2020/12/19 07:57:54;;;;;;;62.33;34.70;;;180.10;1920.00;;;;;;5071939;28;20070;-60
2020/12/19 08:00:20;;;;;;;58.78;32.40;;;180.10;1920.00;;;;;;5072104;28;20103;-59
2020/12/19 08:02:46;;;;;;;57.00;32.78;;;204.80;1894.40;;;;;;5071807;28;20097;-61
2020/12/19 08:05:12;;;;;;;54.30;30.88;;;205.00;1868.80;;;;;;5072152;28;20119;-59
2020/12/19 08:07:38;;;;;;;55.65;32.67;;;205.00;1843.20;;;;;;5071826;28;20029;-60
2020/12/19 08:10:07;;;;;;;60.22;36.00;;;205.00;1843.20;;;;;;5074817;28;20029;-59
2020/12/19 08:12:33;;;;;;;61.97;37.40;;;204.90;1868.80;;;;;;5075926;28;20417;-59
2020/12/19 08:15:05;;;;;;;71.07;37.97;;;204.90;1894.40;;;;;;5075828;28;20039;-58
2020/12/19 08:17:36;;;;;;;73.53;45.05;;;204.90;1894.40;;;;;;5075589;28;20032;-61
2020/12/19 08:20:03;;;;;;;69.38;39.83;;;204.80;1894.40;;;;;;5076080;28;20012;-58
2020/12/19 08:22:30;;;;;;;65.80;39.42;;;205.00;1868.80;;;;;;5075623;28;20032;-59
2020/12/19 08:24:56;;;;;;;64.32;35.97;;;205.10;1843.20;;;;;;5075386;28;20024;-58
2020/12/19 08:27:40;;;;;;;68.13;37.78;;;205.10;1868.80;;;;;;5074775;28;20386;-62
2020/12/19 08:30:08;;;;;;;62.17;37.08;;;205.20;1843.20;;;;;;5057723;28;20124;-60
2020/12/19 08:32:35;;;;;;;66.50;38.70;;;205.30;1843.20;;;;;;5074325;28;20107;-62
2020/12/19 08:35:02;;;;;;;63.22;37.22;;;205.20;1843.20;;;;;;5074580;28;20486;-62
2020/12/19 08:37:30;;;;;;;60.90;36.03;;;205.30;1843.20;;;;;;5075055;28;20038;-61
2020/12/19 08:40:06;;;;;;;62.85;35.13;;;205.30;1843.20;;;;;;5057849;28;20052;-57
2020/12/19 08:42:34;;;;;;;58.72;33.80;;;205.30;1843.20;;;;;;5074535;28;20033;-58
2020/12/19 08:45:21;;;;;;;59.72;33.88;;;205.30;1817.60;;;;;;5062011;28;20039;-57
2020/12/19 08:47:54;;;;;;;64.85;33.80;;;205.40;1817.60;;;;;;5075228;28;20020;-57
2020/12/19 08:50:28;;;;;;;61.40;36.22;;;205.40;1817.60;;;;;;5075421;28;20021;-59
2020/12/19 08:53:09;;;;;;;56.03;33.28;;;205.30;1817.60;;;;;;5075119;28;20056;-58
2020/12/19 08:55:35;;;;;;;61.42;35.05;;;205.40;1817.60;;;;;;5057225;28;20372;-58
2020/12/19 08:58:02;;;;;;;59.75;36.10;;;205.30;1817.60;;;;;;5075011;28;20017;-55
2020/12/19 09:00:38;;;;;;;68.60;36.45;;;205.40;1817.60;;;;;;5075116;28;20093;-59
2020/12/19 09:03:09;;;;;;;66.35;37.13;;;205.40;1817.60;;;;;;5074562;28;20036;-58
2020/12/19 09:05:38;;;;;;;61.88;34.78;;;205.40;1792.00;;;;;;5074797;28;20040;-60
2020/12/19 09:08:04;;;;;;;62.17;35.95;;;205.40;1817.60;;;;;;5056459;28;20041;-58
2020/12/19 09:10:32;;;;;;;64.30;37.58;;;205.60;1792.00;;;;;;5074632;28;20051;-59
2020/12/19 09:13:07;;;;;;;61.15;33.75;;;205.60;1766.40;;;;;;5072660;28;20013;-59
2020/12/19 09:15:33;;;;;;;61.65;35.45;;;205.50;1792.00;;;;;;5073609;28;20420;-59
2020/12/19 09:18:10;;;;;;;68.30;43.05;;;205.70;1766.40;;;;;;5073816;28;20101;-59
2020/12/19 09:20:36;;;;;;;65.10;46.17;;;205.60;1792.00;;;;;;5073266;28;20023;-59
2020/12/19 09:23:05;;;;;;;57.40;34.28;;;205.50;1792.00;;;;;;5073028;28;20024;-59
2020/12/19 09:25:32;;;;;;;58.28;34.97;;;205.50;1792.00;;;;;;5073117;28;20048;-59
2020/12/19 09:27:58;;;;;;;58.65;32.80;;;205.50;1792.00;;;;;;5073187;28;20024;-62
2020/12/19 09:30:23;;;;;;;59.22;34.15;;;205.60;1792.00;;;;;;5054671;28;20066;-60
2020/12/19 09:32:49;;;;;;;67.55;37.65;;;205.70;1766.40;;;;;;5073102;28;20021;-59
2020/12/19 09:35:15;;;;;;;60.40;38.15;;;205.70;1766.40;;;;;;5072567;28;20040;-59
2020/12/19 09:37:40;;;;;;;62.42;38.72;;;205.70;1766.40;;;;;;5072251;28;20056;-59
2020/12/19 09:40:06;;;;;;;59.53;36.97;;;230.40;1740.80;;;;;;5070368;28;20489;-59
2020/12/19 09:42:32;;;;;;;67.30;42.03;;;230.50;1920.00;;;;;;5073006;28;20070;-59
2020/12/19 09:44:57;;;;;;;72.72;44.50;;;230.50;1740.80;;;;;;5071712;28;20515;-61
2020/12/19 09:47:23;;;;;;;69.88;46.25;;;230.50;1740.80;;;;;;5071307;28;20470;-59
2020/12/19 09:49:49;;;;;;;62.85;42.17;;;205.70;1766.40;;;;;;5072049;28;20025;-60
2020/12/19 09:52:15;;;;;;;66.00;41.55;;;205.70;1766.40;;;;;;5071641;28;20020;-59
2020/12/19 09:54:40;;;;;;;65.95;42.83;;;230.40;1740.80;;;;;;5072172;28;20107;-59
2020/12/19 09:57:06;;;;;;;68.53;38.90;;;205.50;1792.00;;;;;;5071359;28;20198;-60
2020/12/19 09:59:31;;;;;;;66.88;40.72;;;205.10;1843.20;;;;;;5071047;28;20604;-59
2020/12/19 10:01:57;;;;;;;69.18;43.92;;;205.40;1817.60;;;;;;5070769;28;20029;-60
2020/12/19 10:04:23;;;;;;;68.10;42.03;;;205.40;1817.60;;;;;;5071877;28;20041;-59
2020/12/19 10:06:51;;;;;;;67.75;41.00;;;205.50;1817.60;;;;;;5071032;28;20060;-59
2020/12/19 10:09:17;;;;;;;81.30;53.00;;;205.40;1792.00;;;;;;5071690;28;20194;-60
2020/12/19 10:11:43;;;;;;;71.57;41.53;;;205.30;1843.20;;;;;;5071928;28;20020;-59
2020/12/19 10:14:10;;;;;;;78.40;46.60;;;205.60;1792.00;;;;;;5071443;28;20408;-59
2020/12/19 10:16:35;;;;;;;75.22;42.63;;;205.60;1792.00;;;;;;5071756;28;20033;-60
2020/12/19 10:19:01;;;;;;;74.03;42.40;;;205.60;1792.00;;;;;;5071321;28;20366;-60
2020/12/19 10:21:27;;;;;;;60.45;38.33;;;205.70;1766.40;;;;;;5071007;28;20074;-59
2020/12/19 10:23:52;;;;;;;57.20;35.10;;;205.70;1792.00;;;;;;5071091;28;20024;-60
2020/12/19 10:26:20;;;;;;;61.70;36.63;;;230.50;1740.80;;;;;;5070934;28;20024;-59
2020/12/19 10:28:45;;;;;;;65.15;39.53;;;230.60;1740.80;;;;;;5053007;28;20078;-60
2020/12/19 10:31:11;;;;;;;66.05;38.42;;;205.70;1766.40;;;;;;5069816;28;20028;-60
2020/12/19 10:33:37;;;;;;;66.32;38.58;;;205.70;1766.40;;;;;;5070412;28;20359;-61
2020/12/19 10:36:03;;;;;;;62.78;37.33;;;205.70;1766.40;;;;;;5071052;28;20043;-60
2020/12/19 10:38:28;;;;;;;61.55;35.53;;;230.40;1766.40;;;;;;5071070;28;20074;-59
2020/12/19 10:40:54;;;;;;;62.33;36.33;;;230.50;1740.80;;;;;;5069722;28;20541;-60
2020/12/19 10:43:20;;;;;;;59.22;33.83;;;205.60;1766.40;;;;;;5071684;28;20048;-59
2020/12/19 10:45:46;;;;;;;50.60;28.98;;;230.50;1740.80;;;;;;5070977;28;20024;-61
2020/12/19 10:48:12;;;;;;;46.90;29.60;;;230.50;1715.20;;;;;;5071101;28;20028;-59
2020/12/19 10:50:37;;;;;;;49.30;30.50;;;230.40;1740.80;;;;;;5071753;28;20013;-60
2020/12/19 10:53:03;;;;;;;50.58;32.42;;;205.70;1766.40;;;;;;5071376;28;20463;-60
2020/12/19 10:55:29;;;;;;;55.03;33.35;;;205.60;1792.00;;;;;;5071529;28;20041;-59
2020/12/19 10:57:54;;;;;;;61.70;33.45;;;205.70;1792.00;;;;;;5065447;28;20035;-60
2020/12/19 11:00:20;;;;;;;55.70;32.72;;;205.70;1792.00;;;;;;5071043;28;20023;-59
2020/12/19 11:02:46;;;;;;;58.65;33.78;;;230.40;1766.40;;;;;;5070615;28;20093;-60
2020/12/19 11:05:11;;;;;;;57.90;35.25;;;205.60;1792.00;;;;;;5070830;28;20101;-60
2020/12/19 11:07:37;;;;;;;54.80;33.83;;;205.60;1817.60;;;;;;5069918;28;20017;-59
2020/12/19 11:10:03;;;;;;;60.08;34.97;;;205.60;1817.60;;;;;;5070404;28;20555;-59
2020/12/19 11:12:29;;;;;;;58.05;35.58;;;205.70;1792.00;;;;;;5071284;28;20028;-61
2020/12/19 11:14:55;;;;;;;63.03;36.15;;;205.70;1792.00;;;;;;5071654;28;20426;-62
2020/12/19 11:17:20;;;;;;;62.45;36.40;;;230.40;1766.40;;;;;;5070998;28;20041;-59
2020/12/19 11:19:46;;;;;;;62.08;35.90;;;230.40;1766.40;;;;;;5070776;28;20024;-61
2020/12/19 11:22:12;;;;;;;63.55;38.20;;;230.50;1766.40;;;;;;5070602;28;20047;-61
2020/12/19 11:24:37;;;;;;;63.13;38.25;;;230.60;1766.40;;;;;;5071035;28;20033;-61
2020/12/19 11:27:03;;;;;;;69.15;38.80;;;230.40;1792.00;;;;;;5071286;28;20424;-58
2020/12/19 11:29:29;;;;;;;67.85;38.08;;;230.50;1792.00;;;;;;5053164;28;20444;-58
2020/12/19 11:31:54;;;;;;;64.28;38.15;;;230.40;1792.00;;;;;;5070601;28;20047;-59
2020/12/19 11:34:20;;;;;;;66.60;36.50;;;230.40;1792.00;;;;;;5071727;28;20032;-59
2020/12/19 11:36:46;;;;;;;68.45;39.67;;;230.50;1792.00;;;;;;5070565;28;20434;-59
2020/12/19 11:39:12;;;;;;;70.30;40.92;;;230.40;1792.00;;;;;;5071274;28;20066;-59
2020/12/19 11:41:41;;;;;;;73.30;40.75;;;205.60;1843.20;;;;;;5070308;28;20029;-58
2020/12/19 11:44:07;;;;;;;74.72;43.88;;;205.60;1843.20;;;;;;5070079;28;20467;-58
2020/12/19 11:46:33;;;;;;;76.35;42.90;;;205.70;1843.20;;;;;;5070477;28;20070;-59
2020/12/19 11:49:00;;;;;;;76.68;44.67;;;205.60;1843.20;;;;;;5070313;28;20029;-60
2020/12/19 11:51:30;;;;;;;72.88;44.13;;;230.40;1817.60;;;;;;5070055;28;20547;-60
2020/12/19 11:53:59;;;;;;;77.25;45.15;;;205.60;1843.20;;;;;;5071337;28;20027;-58
2020/12/19 11:56:26;;;;;;;74.88;43.15;;;205.30;1868.80;;;;;;5070544;28;20029;-59
2020/12/19 11:58:52;;;;;;;79.72;45.80;;;205.40;1868.80;;;;;;5070217;28;20052;-61
2020/12/19 12:01:17;;;;;;;86.32;48.05;;;205.40;1868.80;;;;;;5069811;28;20461;-59